Airfield :
LOGIN :

Register | Disclaimer

   EN    FR    IT 

 










Legend :    VFR   Marginal VFR   IFR   Intensive IFR   Very Intensive IFR
Visi :
Ceiling :
>= 8 km
>= 3000ft
5 to 8 km
1000 to 3000 ft
1500m to 5 km
500 to 1000 ft
800 to 1500m
200 to 500 ft
< 800m
< 200 ft
Symbols :   Thunderstorms  Fog  Heavy snow  Heavy precipitations  Wind > 20 kt
SIGMETs :     Misc.  Thunderstorms  Icing  Turbulence  Mountain Waves  Volcanic Ashes







- Airport Elevation : 778 ft
- IATA code : BRQ


LKTB - Brno-Turany

CURRENT METAR :
  • 170930Z 00000KT 0300 0250 R27/0375 FG VV002 12/11 Q1026 NOSIG

EXPIRED METARs :
  • 170900Z VRB01KT 0200 R27/0350 FG VV002 11/11 Q1027 NOSIG
  • 170830Z VRB01KT 0200 R27/0275N FG VV001 10/10 Q1027 NOSIG
  • 170800Z VRB01KT 0150 R27/0225N FG VV001 10/10 Q1027 NOSIG
  • 170730Z VRB02KT 0150 R27/0225N FG VV001 10/09 Q1027 NOSIG
  • 170700Z 00000KT 0150 R27/0200N FG VV001 09/09 Q1027 NOSIG

TAF AMD TAF LKTB
Valid from the 17 at 08:00 until the 18 at 12:00 UTC


170830Z 1708/1812 VRB02KT 0200 FG BKN001
TEMPO 1711/1712 0600 FG BKN003
BECMG 1712/1714 13003KT CAVOK
BECMG 1722/1801 09004KT
TEMPO 1802/1807 1300 BR BKN005
BECMG 1808/1810 15010KT CAVOK
No reported NOTAMs for that airfield.



MET'MAP, your aeronautical weather chart ! - Copyright ORBIFLY December 2007 - Disclaimer

ORBIFLY MET'MAP TEAM :

Programming & Development : Alexandra Zaïnal
Concept & Development : Baudouin d'Aumeries
Co-Development & Prog : Marc-Olivier Méhu
Technical & hardware support : Manuel Goepfert

Contact : metmap@orbifly.com




SOURCES & CREDITS :

   NOAA